Terminal Aerodrome Forecast
Issued by NWS

Home | Current Version | Previous Version | Text Only | Print | Product List | Glossary On
Versions: 1 2 3 4 5 6 7 8 9 10 11 12 13 14 15 16 17 18 19 20 21
000
FTUS44 KOHX 280500
TAFCKV
TAF
KCKV 280522Z 2806/2906 00000KT 4SM BR SCT250
      TEMPO 2808/2811 1SM BR
     FM281200 VRB04KT P6SM SCT050
     FM282100 14004KT P6SM VCTS SCT050CB
     FM290200 00000KT P6SM SCT250=

USA.gov is the U.S. government's official web portal to all federal, state and local government web resources and services.